^^
Datos históricos de la estación: Murcia-Puente Tocinos
Diario Informe para Mayo 31, 2019 Unidades:  Métrico    Inglés   Ambas
Diario Semanal Mensual Anual Configurable
  Máximo: Mínimo: Media:
Temperatura: 25.5 °C 15.7 °C 20.5 °C
Punto de rocio: 12.7 °C 8.2 °C 10.8 °C
Humedad: 77% 35% 56%
Velocidad viento: 20.9km/h 0.0km/h 8.7km/h
Racha viento: 35.2km/h - -
Viento- - ESE
Presión: 1024.0 hPa 1020.5 hPa -
Precipitación: 0.0 mm    
Historical Graphs
 
 
Tabla de datos para Mayo 31, 2019
Hora Temperatura Punto de rocio Presión Viento Velocidad viento Racha viento Humedad Intensidad lluvia(por hora) Nubes
00:04 17.9 °C 12.6 °C 1023.9 hPa NE 6.4 km/h 9.5 km/h 71% 0.0 mm CLR
00:09 17.9 °C 12.6 °C 1023.9 hPa NE 6.9 km/h 7.4 km/h 71% 0.0 mm CLR
00:14 17.9 °C 12.6 °C 1023.9 hPa NE 6.9 km/h 9.3 km/h 71% 0.0 mm CLR
00:19 18.0 °C 12.7 °C 1023.9 hPa NNE 6.4 km/h 5.6 km/h 71% 0.0 mm CLR
00:24 17.9 °C 12.6 °C 1023.9 hPa NNE 6.4 km/h 7.6 km/h 71% 0.0 mm CLR
00:29 17.9 °C 12.6 °C 1023.9 hPa NE 5.0 km/h 8.4 km/h 71% 0.0 mm CLR
00:34 17.9 °C 12.6 °C 1024.0 hPa NE 5.0 km/h 7.4 km/h 71% 0.0 mm CLR
00:39 17.9 °C 12.6 °C 1024.0 hPa NE 5.8 km/h 7.4 km/h 71% 0.0 mm CLR
00:44 17.8 °C 12.4 °C 1024.0 hPa NE 5.8 km/h 7.4 km/h 71% 0.0 mm CLR
00:49 17.8 °C 12.4 °C 1023.8 hPa NE 6.4 km/h 9.3 km/h 71% 0.0 mm CLR
00:54 17.7 °C 12.6 °C 1023.8 hPa NNE 6.4 km/h 9.3 km/h 72% 0.0 mm CLR
00:59 17.7 °C 12.6 °C 1023.8 hPa NE 5.8 km/h 7.4 km/h 72% 0.0 mm CLR
01:04 17.6 °C 12.5 °C 1023.8 hPa NE 5.8 km/h 9.3 km/h 72% 0.0 mm CLR
01:09 17.6 °C 12.5 °C 1023.8 hPa NE 5.8 km/h 7.4 km/h 72% 0.0 mm CLR
01:14 17.6 °C 12.5 °C 1023.8 hPa NE 5.8 km/h 5.6 km/h 72% 0.0 mm CLR
01:19 17.6 °C 12.7 °C 1023.7 hPa NE 4.7 km/h 5.6 km/h 73% 0.0 mm CLR
01:24 17.6 °C 12.7 °C 1023.7 hPa NE 4.7 km/h 5.6 km/h 73% 0.0 mm CLR
01:29 17.5 °C 12.6 °C 1023.7 hPa NE 3.2 km/h 3.7 km/h 73% 0.0 mm CLR
01:34 17.5 °C 12.6 °C 1023.8 hPa NE 3.2 km/h 7.4 km/h 73% 0.0 mm CLR
01:39 17.4 °C 12.5 °C 1023.8 hPa NNE 3.2 km/h 3.7 km/h 73% 0.0 mm CLR
01:44 17.4 °C 12.5 °C 1023.8 hPa ENE 3.2 km/h 5.6 km/h 73% 0.0 mm CLR
01:49 17.4 °C 12.5 °C 1023.8 hPa NE 2.9 km/h 7.4 km/h 73% 0.0 mm CLR
01:54 17.3 °C 12.4 °C 1023.8 hPa NE 2.9 km/h   73% 0.0 mm CLR
01:59 17.3 °C 12.4 °C 1023.8 hPa East 2.3 km/h 5.0 km/h 73% 0.0 mm CLR
02:04 17.2 °C 12.3 °C 1023.7 hPa East 2.3 km/h 7.4 km/h 73% 0.0 mm CLR
02:09 17.1 °C 12.2 °C 1023.7 hPa East 3.9 km/h 3.9 km/h 73% 0.0 mm CLR
02:14 16.9 °C 12.0 °C 1023.7 hPa East 3.9 km/h 5.6 km/h 73% 0.0 mm CLR
02:19 16.9 °C 12.2 °C 1023.6 hPa East 2.9 km/h   74% 0.0 mm CLR
02:24 16.9 °C 12.2 °C 1023.6 hPa East 2.9 km/h   74% 0.0 mm CLR
02:29 16.9 °C 12.2 °C 1023.6 hPa Calm   3.7 km/h 74% 0.0 mm CLR
02:34 17.0 °C 12.3 °C 1023.5 hPa Calm   3.7 km/h 74% 0.0 mm CLR
02:39 16.9 °C 12.2 °C 1023.5 hPa SE 2.3 km/h   74% 0.0 mm CLR
02:44 16.9 °C 12.2 °C 1023.5 hPa SE 2.3 km/h   74% 0.0 mm CLR
02:49 16.9 °C 12.2 °C 1023.3 hPa Calm     74% 0.0 mm CLR
02:54 16.9 °C 12.2 °C 1023.3 hPa Calm     74% 0.0 mm CLR
02:59 16.9 °C 12.4 °C 1023.3 hPa Calm     75% 0.0 mm CLR
03:04 16.9 °C 12.4 °C 1023.1 hPa Calm     75% 0.0 mm CLR
03:09 16.9 °C 12.4 °C 1023.1 hPa Calm     75% 0.0 mm CLR
03:14 16.9 °C 12.2 °C 1023.1 hPa Calm     74% 0.0 mm CLR
03:19 16.9 °C 12.4 °C 1023.0 hPa Calm     75% 0.0 mm CLR
03:24 16.9 °C 12.4 °C 1023.0 hPa Calm     75% 0.0 mm CLR
03:29 16.9 °C 12.4 °C 1023.0 hPa Calm     75% 0.0 mm CLR
03:34 16.8 °C 12.3 °C 1022.8 hPa Calm     75% 0.0 mm CLR
03:39 16.9 °C 12.4 °C 1022.8 hPa Calm     75% 0.0 mm CLR
03:44 16.8 °C 12.3 °C 1022.8 hPa Calm   3.9 km/h 75% 0.0 mm CLR
03:49 16.8 °C 12.3 °C 1022.7 hPa Calm   4.7 km/h 75% 0.0 mm CLR
03:54 16.8 °C 12.3 °C 1022.7 hPa Calm   3.7 km/h 75% 0.0 mm CLR
03:59 16.6 °C 12.2 °C 1022.7 hPa SE 2.9 km/h   75% 0.0 mm CLR
04:04 16.6 °C 12.3 °C 1022.5 hPa SE 2.9 km/h   76% 0.0 mm CLR
04:09 16.5 °C 12.3 °C 1022.5 hPa Calm     76% 0.0 mm CLR
04:14 16.5 °C 12.3 °C 1022.5 hPa Calm     76% 0.0 mm CLR
04:19 16.5 °C 12.1 °C 1022.4 hPa Calm   3.7 km/h 75% 0.0 mm CLR
04:24 16.6 °C 11.9 °C 1022.4 hPa Calm   7.4 km/h 74% 0.0 mm CLR
04:29 16.6 °C 11.9 °C 1022.4 hPa SE 4.7 km/h 7.4 km/h 74% 0.0 mm CLR
04:34 16.5 °C 11.8 °C 1022.3 hPa ESE 4.7 km/h 9.3 km/h 74% 0.0 mm CLR
04:39 16.4 °C 11.8 °C 1022.3 hPa SE 5.0 km/h 9.3 km/h 74% 0.0 mm CLR
04:44 16.2 °C 11.8 °C 1022.3 hPa South 5.0 km/h 9.3 km/h 75% 0.0 mm CLR
04:49 16.1 °C 11.7 °C 1022.3 hPa South 6.4 km/h 9.3 km/h 75% 0.0 mm CLR
04:54 16.1 °C 11.9 °C 1022.3 hPa SSW 6.4 km/h 9.5 km/h 76% 0.0 mm CLR
04:59 16.1 °C 11.9 °C 1022.3 hPa SSW 6.4 km/h 9.3 km/h 76% 0.0 mm CLR
05:04 16.1 °C 11.9 °C 1022.3 hPa SSW 6.4 km/h 9.3 km/h 76% 0.0 mm CLR
05:09 16.1 °C 11.9 °C 1022.3 hPa SSW 6.9 km/h 11.1 km/h 76% 0.0 mm CLR
05:14 16.1 °C 11.9 °C 1022.3 hPa SSW 6.9 km/h 11.1 km/h 76% 0.0 mm CLR
05:19 16.1 °C 11.9 °C 1022.2 hPa SSW 8.7 km/h 10.3 km/h 76% 0.0 mm CLR
05:24 16.1 °C 11.9 °C 1022.2 hPa SSW 8.7 km/h 11.1 km/h 76% 0.0 mm CLR
05:29 16.1 °C 11.9 °C 1022.2 hPa SW 7.6 km/h 9.3 km/h 76% 0.0 mm CLR
05:34 16.1 °C 11.9 °C 1022.1 hPa SW 7.6 km/h 11.1 km/h 76% 0.0 mm CLR
05:39 16.1 °C 11.9 °C 1022.1 hPa SW 6.9 km/h 11.1 km/h 76% 0.0 mm CLR
05:44 16.1 °C 11.9 °C 1022.1 hPa SW 6.9 km/h 14.8 km/h 76% 0.0 mm CLR
05:49 16.1 °C 11.9 °C 1022.0 hPa WSW 7.6 km/h 11.1 km/h 76% 0.0 mm CLR
05:54 16.0 °C 11.8 °C 1022.0 hPa SW 7.6 km/h 9.5 km/h 76% 0.0 mm CLR
05:59 15.9 °C 11.7 °C 1022.0 hPa WNW 6.4 km/h 9.3 km/h 76% 0.0 mm CLR
06:04 15.9 °C 11.7 °C 1022.0 hPa WSW 6.4 km/h 7.4 km/h 76% 0.0 mm CLR
06:09 15.8 °C 11.6 °C 1022.0 hPa West 5.8 km/h 9.3 km/h 76% 0.0 mm CLR
06:14 15.8 °C 11.8 °C 1022.0 hPa WSW 5.8 km/h 9.3 km/h 77% 0.0 mm CLR
06:19 15.8 °C 11.8 °C 1022.1 hPa WSW 5.8 km/h 7.4 km/h 77% 0.0 mm CLR
06:24 15.8 °C 11.8 °C 1022.1 hPa WSW 5.8 km/h 5.6 km/h 77% 0.0 mm CLR
06:29 15.8 °C 11.6 °C 1022.1 hPa WSW 4.7 km/h 7.4 km/h 76% 0.0 mm CLR
06:34 15.7 °C 11.5 °C 1022.2 hPa WSW 4.7 km/h 5.8 km/h 76% 0.0 mm CLR
06:39 15.7 °C 11.5 °C 1022.2 hPa WSW 5.8 km/h 7.4 km/h 76% 0.0 mm CLR
06:44 15.7 °C 11.5 °C 1022.2 hPa SW 5.8 km/h 7.4 km/h 76% 0.0 mm CLR
06:49 15.7 °C 11.5 °C 1022.4 hPa SW 5.8 km/h 11.1 km/h 76% 0.0 mm CLR
06:54 15.7 °C 11.5 °C 1022.4 hPa SW 5.8 km/h 11.1 km/h 76% 0.0 mm CLR
06:59 15.7 °C 11.3 °C 1022.4 hPa SW 7.6 km/h 9.3 km/h 75% 0.0 mm CLR
07:04 15.7 °C 11.3 °C 1022.4 hPa WSW 7.6 km/h 7.4 km/h 75% 0.0 mm CLR
07:09 15.8 °C 11.4 °C 1022.4 hPa West 5.8 km/h 7.4 km/h 75% 0.0 mm CLR
07:14 15.7 °C 11.1 °C 1022.4 hPa WSW 5.8 km/h 7.4 km/h 74% 0.0 mm CLR
07:19 15.7 °C 11.3 °C 1022.6 hPa WSW 5.8 km/h 7.6 km/h 75% 0.0 mm CLR
07:24 15.7 °C 11.3 °C 1022.6 hPa SW 5.8 km/h 7.4 km/h 75% 0.0 mm CLR
07:29 15.9 °C 11.3 °C 1022.6 hPa WSW 4.7 km/h 7.4 km/h 74% 0.0 mm CLR
07:34 15.9 °C 11.4 °C 1022.6 hPa SW 4.7 km/h 7.4 km/h 75% 0.0 mm CLR
07:39 16.0 °C 11.4 °C 1022.6 hPa WSW 4.7 km/h 5.8 km/h 74% 0.0 mm CLR
07:44 16.1 °C 11.4 °C 1022.6 hPa WSW 4.7 km/h 7.4 km/h 74% 0.0 mm CLR
07:49 16.2 °C 11.6 °C 1022.8 hPa WSW 3.9 km/h 5.8 km/h 74% 0.0 mm CLR
07:54 16.2 °C 11.6 °C 1022.8 hPa WNW 3.9 km/h 7.6 km/h 74% 0.0 mm CLR
07:59 16.3 °C 11.7 °C 1022.8 hPa West 4.7 km/h 7.4 km/h 74% 0.0 mm CLR
08:04 16.3 °C 11.7 °C 1022.9 hPa West 4.7 km/h 7.4 km/h 74% 0.0 mm CLR
08:09 16.4 °C 11.6 °C 1022.9 hPa SW 5.8 km/h 9.3 km/h 73% 0.0 mm CLR
08:14 16.6 °C 11.6 °C 1022.9 hPa WSW 5.8 km/h 7.4 km/h 72% 0.0 mm CLR
08:19 16.7 °C 11.4 °C 1022.8 hPa SSW 6.4 km/h 9.3 km/h 71% 0.0 mm CLR
08:24 16.7 °C 11.6 °C 1022.8 hPa SW 6.4 km/h 7.6 km/h 72% 0.0 mm CLR
08:29 16.8 °C 11.5 °C 1022.8 hPa South 6.4 km/h 7.4 km/h 71% 0.0 mm CLR
08:34 16.9 °C 11.4 °C 1022.8 hPa WSW 6.4 km/h 8.4 km/h 70% 0.0 mm CLR
08:39 17.0 °C 11.5 °C 1022.8 hPa SW 5.8 km/h 9.3 km/h 70% 0.0 mm CLR
08:44 17.2 °C 11.4 °C 1022.8 hPa WSW 5.8 km/h 10.3 km/h 69% 0.0 mm CLR
08:49 17.3 °C 11.6 °C 1022.8 hPa SSW 6.4 km/h 9.3 km/h 69% 0.0 mm CLR
08:54 17.5 °C 11.7 °C 1022.8 hPa SW 6.4 km/h 7.4 km/h 69% 0.0 mm CLR
08:59 17.7 °C 11.7 °C 1022.8 hPa NW 5.0 km/h 7.6 km/h 68% 0.0 mm CLR
09:04 17.9 °C 11.7 °C 1022.8 hPa WSW 5.0 km/h 9.5 km/h 67% 0.0 mm CLR
09:09 17.9 °C 11.4 °C 1022.8 hPa WSW 6.9 km/h 11.1 km/h 66% 0.0 mm CLR
09:14 18.0 °C 11.8 °C 1022.8 hPa WSW 6.9 km/h 9.3 km/h 67% 0.0 mm CLR
09:19 18.1 °C 11.4 °C 1022.9 hPa West 6.9 km/h 7.4 km/h 65% 0.0 mm CLR
09:24 18.3 °C 11.8 °C 1022.9 hPa South 6.9 km/h 7.6 km/h 66% 0.0 mm CLR
09:29 18.6 °C 11.7 °C 1022.9 hPa South 5.8 km/h 11.1 km/h 64% 0.0 mm CLR
09:34 18.6 °C 11.7 °C 1023.0 hPa SSE 5.8 km/h 9.3 km/h 64% 0.0 mm CLR
09:39 18.8 °C 11.8 °C 1023.0 hPa SSW 6.4 km/h 7.4 km/h 64% 0.0 mm CLR
09:44 19.0 °C 11.8 °C 1023.0 hPa SSW 6.4 km/h 7.6 km/h 63% 0.0 mm CLR
09:49 19.1 °C 11.7 °C 1023.1 hPa SSW 5.8 km/h 9.3 km/h 62% 0.0 mm CLR
09:54 19.2 °C 11.7 °C 1023.1 hPa WNW 5.8 km/h 9.3 km/h 62% 0.0 mm CLR
09:59 19.2 °C 11.7 °C 1023.1 hPa SW 6.9 km/h 7.4 km/h 62% 0.0 mm CLR
10:04 19.6 °C 11.9 °C 1023.1 hPa SE 6.9 km/h 7.4 km/h 61% 0.0 mm CLR
10:09 19.9 °C 11.7 °C 1023.1 hPa NW 2.9 km/h 5.6 km/h 59% 0.0 mm CLR
10:14 20.2 °C 11.7 °C 1023.1 hPa WSW 2.9 km/h 8.7 km/h 58% 0.0 mm CLR
10:19 20.2 °C 11.4 °C 1023.0 hPa SSW 5.0 km/h 7.4 km/h 57% 0.0 mm CLR
10:24 20.5 °C 11.2 °C 1023.0 hPa SSE 5.0 km/h 7.4 km/h 55% 0.0 mm CLR
10:29 20.9 °C 11.2 °C 1023.0 hPa SSE 2.9 km/h 4.7 km/h 54% 0.0 mm CLR
10:34 21.1 °C 10.8 °C 1022.9 hPa SSW 2.9 km/h 1.9 km/h 52% 0.0 mm CLR
10:39 21.5 °C 10.9 °C 1022.9 hPa East 2.3 km/h 7.4 km/h 51% 0.0 mm CLR
10:44 21.9 °C 10.7 °C 1022.9 hPa East 2.3 km/h 6.9 km/h 49% 0.0 mm CLR
10:49 22.3 °C 10.8 °C 1022.8 hPa NE 2.9 km/h 5.0 km/h 48% 0.0 mm CLR
10:54 22.5 °C 10.3 °C 1022.8 hPa NW 2.9 km/h 9.3 km/h 46% 0.0 mm CLR
10:59 22.6 °C 10.4 °C 1022.8 hPa East 3.9 km/h 9.3 km/h 46% 0.0 mm CLR
11:04 22.6 °C 10.1 °C 1022.9 hPa NNW 3.9 km/h 9.3 km/h 45% 0.0 mm CLR
11:09 22.4 °C 10.6 °C 1022.9 hPa NNE 5.0 km/h 8.4 km/h 47% 0.0 mm CLR
11:14 22.4 °C 10.2 °C 1022.9 hPa NNE 5.0 km/h 11.1 km/h 46% 0.0 mm CLR
11:19 22.5 °C 9.9 °C 1022.9 hPa ESE 6.9 km/h 7.6 km/h 45% 0.0 mm CLR
11:24 22.7 °C 9.5 °C 1022.9 hPa East 6.9 km/h 9.3 km/h 43% 0.0 mm CLR
11:29 22.9 °C 10.0 °C 1022.9 hPa ENE 6.9 km/h 13.0 km/h 44% 0.0 mm CLR
11:34 22.9 °C 9.3 °C 1022.7 hPa ENE 6.9 km/h 20.4 km/h 42% 0.0 mm CLR
11:39 23.0 °C 8.3 °C 1022.7 hPa ENE 11.1 km/h 20.1 km/h 39% 0.0 mm CLR
11:44 22.9 °C 8.6 °C 1022.7 hPa ENE 11.1 km/h 22.2 km/h 40% 0.0 mm CLR
11:49 23.2 °C 9.2 °C 1022.7 hPa NE 13.0 km/h 16.7 km/h 41% 0.0 mm CLR
11:54 23.3 °C 8.9 °C 1022.7 hPa ENE 13.0 km/h 16.7 km/h 40% 0.0 mm CLR
11:59 23.2 °C 9.2 °C 1022.7 hPa East 13.0 km/h 18.5 km/h 41% 0.0 mm CLR
12:04 23.3 °C 9.3 °C 1022.8 hPa NE 13.0 km/h 16.7 km/h 41% 0.0 mm CLR
12:09 23.6 °C 9.2 °C 1022.8 hPa ESE 12.2 km/h 14.8 km/h 40% 0.0 mm CLR
12:14 23.8 °C 9.0 °C 1022.8 hPa ENE 12.2 km/h 24.1 km/h 39% 0.0 mm CLR
12:19 23.7 °C 9.3 °C 1022.7 hPa NNE 10.0 km/h 16.7 km/h 40% 0.0 mm CLR
12:24 23.8 °C 9.4 °C 1022.7 hPa WNW 10.0 km/h 10.3 km/h 40% 0.0 mm CLR
12:29 24.2 °C 9.4 °C 1022.7 hPa ENE 6.9 km/h 9.3 km/h 39% 0.0 mm CLR
12:34 24.4 °C 9.2 °C 1022.5 hPa ENE 6.9 km/h 16.1 km/h 38% 0.0 mm CLR
12:39 24.4 °C 8.3 °C 1022.5 hPa East 9.5 km/h 16.7 km/h 36% 0.0 mm CLR
12:44 24.3 °C 8.3 °C 1022.5 hPa NE 9.5 km/h 22.2 km/h 36% 0.0 mm CLR
12:49 24.2 °C 8.6 °C 1022.4 hPa East 11.1 km/h 18.5 km/h 37% 0.0 mm CLR
12:54 24.5 °C 8.4 °C 1022.4 hPa NE 11.1 km/h 18.5 km/h 36% 0.0 mm CLR
12:59 24.5 °C 8.8 °C 1022.4 hPa NE 11.9 km/h 22.2 km/h 37% 0.0 mm CLR
13:04 24.7 °C 9.0 °C 1022.4 hPa ESE 11.9 km/h 13.0 km/h 37% 0.0 mm CLR
13:09 24.8 °C 9.5 °C 1022.4 hPa NW 9.5 km/h 25.9 km/h 38% 0.0 mm CLR
13:14 24.9 °C 9.6 °C 1022.4 hPa NE 9.5 km/h 18.5 km/h 38% 0.0 mm CLR
13:19 24.8 °C 8.7 °C 1022.3 hPa WNW 14.0 km/h 22.2 km/h 36% 0.0 mm CLR
13:24 24.8 °C 9.5 °C 1022.3 hPa ENE 14.0 km/h 25.9 km/h 38% 0.0 mm CLR
13:29 24.6 °C 9.3 °C 1022.3 hPa North 14.8 km/h 18.0 km/h 38% 0.0 mm CLR
13:34 24.7 °C 9.0 °C 1022.2 hPa NE 14.8 km/h 22.2 km/h 37% 0.0 mm CLR
13:39 24.7 °C 8.2 °C 1022.2 hPa NE 11.9 km/h 23.3 km/h 35% 0.0 mm CLR
13:44 24.7 °C 9.0 °C 1022.2 hPa ENE 11.9 km/h 22.2 km/h 37% 0.0 mm CLR
13:49 24.7 °C 9.0 °C 1022.1 hPa North 16.1 km/h 20.4 km/h 37% 0.0 mm CLR
13:54 24.9 °C 9.2 °C 1022.1 hPa NE 16.1 km/h 24.1 km/h 37% 0.0 mm CLR
13:59 24.8 °C 9.1 °C 1022.1 hPa ENE 13.7 km/h 22.2 km/h 37% 0.0 mm CLR
14:04 24.7 °C 9.4 °C 1021.9 hPa ENE 13.7 km/h 20.4 km/h 38% 0.0 mm CLR
14:09 24.8 °C 9.5 °C 1021.9 hPa NE 14.0 km/h 22.2 km/h 38% 0.0 mm CLR
14:14 24.8 °C 9.5 °C 1021.9 hPa NE 14.0 km/h 23.3 km/h 38% 0.0 mm CLR
14:19 24.7 °C 9.4 °C 1021.9 hPa ENE 16.1 km/h 29.6 km/h 38% 0.0 mm CLR
14:24 24.8 °C 9.5 °C 1021.9 hPa NE 16.1 km/h 25.9 km/h 38% 0.0 mm CLR
14:29 25.0 °C 10.1 °C 1021.9 hPa ESE 14.8 km/h 20.1 km/h 39% 0.0 mm CLR
14:34 24.9 °C 10.0 °C 1021.8 hPa East 14.8 km/h 20.4 km/h 39% 0.0 mm CLR
14:39 25.0 °C 10.1 °C 1021.8 hPa ENE 14.0 km/h 27.0 km/h 39% 0.0 mm CLR
14:44 24.9 °C 10.0 °C 1021.8 hPa ENE 14.0 km/h 22.2 km/h 39% 0.0 mm CLR
14:49 24.8 °C 10.3 °C 1021.6 hPa ESE 16.4 km/h 22.0 km/h 40% 0.0 mm CLR
14:54 25.0 °C 10.4 °C 1021.6 hPa NNE 16.4 km/h 24.1 km/h 40% 0.0 mm CLR
14:59 24.9 °C 10.7 °C 1021.6 hPa NNE 14.0 km/h 31.7 km/h 41% 0.0 mm CLR
15:04 25.1 °C 10.6 °C 1021.6 hPa East 14.0 km/h 22.2 km/h 40% 0.0 mm CLR
15:09 25.1 °C 10.6 °C 1021.6 hPa ENE 16.1 km/h 20.4 km/h 40% 0.0 mm CLR
15:14 24.9 °C 10.0 °C 1021.6 hPa ENE 16.1 km/h 25.1 km/h 39% 0.0 mm CLR
15:19 24.9 °C 10.0 °C 1021.4 hPa NNE 18.0 km/h 29.6 km/h 39% 0.0 mm CLR
15:24 24.9 °C 10.4 °C 1021.4 hPa NE 18.0 km/h 29.6 km/h 40% 0.0 mm CLR
15:29 24.8 °C 9.9 °C 1021.4 hPa ENE 19.8 km/h 27.4 km/h 39% 0.0 mm CLR
15:34 24.9 °C 10.4 °C 1021.4 hPa NNE 19.8 km/h 19.8 km/h 40% 0.0 mm CLR
15:39 25.4 °C 9.7 °C 1021.4 hPa NNE 14.0 km/h 25.9 km/h 37% 0.0 mm CLR
15:44 25.5 °C 9.3 °C 1021.4 hPa NE 14.0 km/h 22.2 km/h 36% 0.0 mm CLR
15:49 25.1 °C 9.4 °C 1021.3 hPa ENE 13.0 km/h 22.2 km/h 37% 0.0 mm CLR
15:54 25.0 °C 10.1 °C 1021.3 hPa NNE 13.0 km/h 25.9 km/h 39% 0.0 mm CLR
15:59 25.2 °C 9.9 °C 1021.3 hPa NNE 16.4 km/h 22.2 km/h 38% 0.0 mm CLR
16:04 25.1 °C 10.2 °C 1021.2 hPa ENE 16.4 km/h 24.1 km/h 39% 0.0 mm CLR
16:09 24.8 °C 9.9 °C 1021.2 hPa NE 15.6 km/h 35.2 km/h 39% 0.0 mm CLR
16:14 25.1 °C 10.2 °C 1021.2 hPa NE 15.6 km/h 18.5 km/h 39% 0.0 mm CLR
16:19 25.2 °C 9.9 °C 1021.1 hPa NNE 15.6 km/h 27.8 km/h 38% 0.0 mm CLR
16:24 24.8 °C 9.5 °C 1021.1 hPa NE 15.6 km/h 29.6 km/h 38% 0.0 mm CLR
16:29 24.7 °C 10.2 °C 1021.1 hPa NW 20.9 km/h 27.0 km/h 40% 0.0 mm CLR
16:34 24.8 °C 9.9 °C 1021.1 hPa NE 20.9 km/h 24.1 km/h 39% 0.0 mm CLR
16:39 24.8 °C 9.9 °C 1021.1 hPa NW 16.1 km/h 22.2 km/h 39% 0.0 mm CLR
16:44 25.1 °C 9.8 °C 1021.1 hPa North 16.1 km/h 27.8 km/h 38% 0.0 mm CLR
16:49 24.7 °C 9.8 °C 1021.0 hPa NE 15.6 km/h 25.9 km/h 39% 0.0 mm CLR
16:54 24.6 °C 9.3 °C 1021.0 hPa East 15.6 km/h 25.9 km/h 38% 0.0 mm CLR
16:59 24.5 °C 9.6 °C 1021.0 hPa ENE 17.2 km/h 29.6 km/h 39% 0.0 mm CLR
17:04 24.6 °C 9.3 °C 1020.9 hPa NE 17.2 km/h 27.8 km/h 38% 0.0 mm CLR
17:09 24.4 °C 9.2 °C 1020.9 hPa NNE 16.1 km/h 25.9 km/h 38% 0.0 mm CLR
17:14 24.3 °C 9.4 °C 1020.9 hPa NE 16.1 km/h 23.3 km/h 39% 0.0 mm CLR
17:19 24.4 °C 9.2 °C 1020.9 hPa ENE 16.4 km/h 18.5 km/h 38% 0.0 mm CLR
17:24 24.7 °C 9.0 °C 1020.9 hPa NE 16.4 km/h 28.2 km/h 37% 0.0 mm CLR
17:29 24.3 °C 9.1 °C 1020.9 hPa NNE 17.2 km/h 22.2 km/h 38% 0.0 mm CLR
17:34 24.3 °C 9.1 °C 1020.8 hPa ENE 17.2 km/h 27.8 km/h 38% 0.0 mm CLR
17:39 24.2 °C 9.0 °C 1020.8 hPa NE 16.4 km/h 29.6 km/h 38% 0.0 mm CLR
17:44 24.4 °C 9.2 °C 1020.8 hPa NE 16.4 km/h 24.5 km/h 38% 0.0 mm CLR
17:49 24.2 °C 8.6 °C 1020.8 hPa East 16.4 km/h 29.6 km/h 37% 0.0 mm CLR
17:54 24.2 °C 9.0 °C 1020.8 hPa ESE 16.4 km/h 16.7 km/h 38% 0.0 mm CLR
17:59 24.2 °C 9.7 °C 1020.8 hPa North 15.6 km/h 22.2 km/h 40% 0.0 mm CLR
18:04 24.2 °C 9.7 °C 1020.7 hPa NNE 15.6 km/h 22.2 km/h 40% 0.0 mm CLR
18:09 24.4 °C 9.6 °C 1020.7 hPa East 14.0 km/h 20.1 km/h 39% 0.0 mm CLR
18:14 24.1 °C 10.0 °C 1020.7 hPa NE 14.0 km/h 27.8 km/h 41% 0.0 mm CLR
18:19 23.9 °C 9.5 °C 1020.6 hPa ENE 17.2 km/h 25.9 km/h 40% 0.0 mm CLR
18:24 23.9 °C 10.2 °C 1020.6 hPa ESE 17.2 km/h 27.8 km/h 42% 0.0 mm CLR
18:29 23.8 °C 10.1 °C 1020.6 hPa NE 16.4 km/h 18.5 km/h 42% 0.0 mm CLR
18:34 23.8 °C 10.1 °C 1020.7 hPa North 16.4 km/h 25.9 km/h 42% 0.0 mm CLR
18:39 23.8 °C 9.8 °C 1020.7 hPa NNE 16.4 km/h 33.3 km/h 41% 0.0 mm CLR
18:44 23.9 °C 9.8 °C 1020.7 hPa NNE 16.4 km/h 24.1 km/h 41% 0.0 mm CLR
18:49 23.7 °C 10.0 °C 1020.5 hPa ENE 17.2 km/h 24.1 km/h 42% 0.0 mm CLR
18:54 23.7 °C 10.0 °C 1020.5 hPa ENE 17.2 km/h 24.1 km/h 42% 0.0 mm CLR
18:59 23.9 °C 9.8 °C 1020.5 hPa ENE 14.0 km/h 18.5 km/h 41% 0.0 mm CLR
19:04 23.9 °C 9.8 °C 1020.5 hPa NNE 14.0 km/h 18.5 km/h 41% 0.0 mm CLR
19:09 23.8 °C 10.4 °C 1020.5 hPa NE 12.2 km/h 27.0 km/h 43% 0.0 mm CLR
19:14 23.6 °C 10.3 °C 1020.5 hPa ENE 12.2 km/h 20.4 km/h 43% 0.0 mm CLR
19:19 23.7 °C 10.7 °C 1020.5 hPa NNE 14.8 km/h 17.2 km/h 44% 0.0 mm CLR
19:24 23.7 °C 10.7 °C 1020.5 hPa NE 14.8 km/h 16.7 km/h 44% 0.0 mm CLR
19:29 23.8 °C 10.8 °C 1020.5 hPa East 11.9 km/h 16.1 km/h 44% 0.0 mm CLR
19:34 23.6 °C 10.3 °C 1020.5 hPa NE 11.9 km/h 20.4 km/h 43% 0.0 mm CLR
19:39 23.4 °C 10.1 °C 1020.5 hPa NNE 13.0 km/h 20.9 km/h 43% 0.0 mm CLR
19:44 23.2 °C 10.3 °C 1020.5 hPa NE 13.0 km/h 22.2 km/h 44% 0.0 mm CLR
19:49 23.2 °C 9.9 °C 1020.6 hPa NNE 14.8 km/h 24.1 km/h 43% 0.0 mm CLR
19:54 23.0 °C 10.1 °C 1020.6 hPa NNE 14.8 km/h 22.2 km/h 44% 0.0 mm CLR
19:59 22.9 °C 9.7 °C 1020.6 hPa East 16.1 km/h 25.9 km/h 43% 0.0 mm CLR
20:04 22.9 °C 10.0 °C 1020.5 hPa NE 16.1 km/h 25.9 km/h 44% 0.0 mm CLR
20:09 22.8 °C 9.6 °C 1020.5 hPa ENE 13.7 km/h 24.1 km/h 43% 0.0 mm CLR
20:14 22.7 °C 9.8 °C 1020.5 hPa NE 13.7 km/h 20.4 km/h 44% 0.0 mm CLR
20:19 22.7 °C 9.8 °C 1020.5 hPa NE 13.0 km/h 13.0 km/h 44% 0.0 mm CLR
20:24 22.7 °C 9.5 °C 1020.5 hPa NNE 13.0 km/h 16.7 km/h 43% 0.0 mm CLR
20:29 22.5 °C 9.3 °C 1020.5 hPa NNE 13.0 km/h 14.8 km/h 43% 0.0 mm CLR
20:34 22.3 °C 9.1 °C 1020.5 hPa ENE 13.0 km/h 24.1 km/h 43% 0.0 mm CLR
20:39 22.3 °C 9.4 °C 1020.5 hPa NE 12.2 km/h 14.8 km/h 44% 0.0 mm CLR
20:44 22.2 °C 9.4 °C 1020.5 hPa NE 12.2 km/h 18.5 km/h 44% 0.0 mm CLR
20:49 22.1 °C 8.9 °C 1020.6 hPa NE 11.1 km/h 18.5 km/h 43% 0.0 mm CLR
20:54 22.1 °C 8.9 °C 1020.6 hPa NE 11.1 km/h 18.5 km/h 43% 0.0 mm CLR
20:59 21.9 °C 8.7 °C 1020.6 hPa NE 11.1 km/h 16.7 km/h 43% 0.0 mm CLR
21:04 21.9 °C 9.1 °C 1020.6 hPa NE 11.1 km/h 19.0 km/h 44% 0.0 mm CLR
21:09 21.8 °C 9.0 °C 1020.6 hPa NNE 12.2 km/h 14.8 km/h 44% 0.0 mm CLR
21:14 21.7 °C 8.9 °C 1020.6 hPa ENE 12.2 km/h 11.1 km/h 44% 0.0 mm CLR
21:19 21.6 °C 9.2 °C 1020.7 hPa ENE 8.4 km/h 14.8 km/h 45% 0.0 mm CLR
21:24 21.6 °C 9.2 °C 1020.7 hPa NE 8.4 km/h 11.1 km/h 45% 0.0 mm CLR
21:29 21.4 °C 9.3 °C 1020.7 hPa NE 7.6 km/h 14.8 km/h 46% 0.0 mm CLR
21:34 21.3 °C 9.2 °C 1020.8 hPa ENE 7.6 km/h 11.1 km/h 46% 0.0 mm CLR
21:39 21.2 °C 9.1 °C 1020.8 hPa NNE 8.7 km/h 11.9 km/h 46% 0.0 mm CLR
21:44 21.0 °C 9.3 °C 1020.8 hPa NE 8.7 km/h 13.0 km/h 47% 0.0 mm CLR
21:49 20.9 °C 9.2 °C 1020.9 hPa NE 8.7 km/h 13.0 km/h 47% 0.0 mm CLR
21:54 20.9 °C 9.5 °C 1020.9 hPa NE 8.7 km/h 10.3 km/h 48% 0.0 mm CLR
21:59 20.8 °C 9.7 °C 1020.9 hPa NE 8.4 km/h 9.3 km/h 49% 0.0 mm CLR
22:04 20.7 °C 9.9 °C 1021.0 hPa ENE 8.4 km/h 9.3 km/h 50% 0.0 mm CLR
22:09 20.6 °C 9.8 °C 1021.0 hPa NNE 6.4 km/h 9.3 km/h 50% 0.0 mm CLR
22:14 20.4 °C 9.9 °C 1021.0 hPa NE 6.4 km/h 10.3 km/h 51% 0.0 mm CLR
22:19 20.3 °C 10.4 °C 1021.2 hPa ENE 6.9 km/h 9.5 km/h 53% 0.0 mm CLR
22:24 20.3 °C 10.4 °C 1021.2 hPa NE 6.9 km/h 9.3 km/h 53% 0.0 mm CLR
22:29 20.2 °C 10.6 °C 1021.2 hPa NE 5.8 km/h 9.3 km/h 54% 0.0 mm CLR
22:34 20.1 °C 10.8 °C 1021.2 hPa NE 5.8 km/h 9.3 km/h 55% 0.0 mm CLR
22:39 20.1 °C 11.1 °C 1021.2 hPa NE 5.8 km/h 9.3 km/h 56% 0.0 mm CLR
22:44 20.0 °C 10.9 °C 1021.2 hPa NE 5.8 km/h 8.7 km/h 56% 0.0 mm CLR
22:49 19.9 °C 10.8 °C 1021.5 hPa East 5.8 km/h 7.4 km/h 56% 0.0 mm CLR
22:54 19.9 °C 11.1 °C 1021.5 hPa ENE 5.8 km/h 7.4 km/h 57% 0.0 mm CLR
22:59 19.9 °C 11.1 °C 1021.5 hPa East 4.7 km/h 7.6 km/h 57% 0.0 mm CLR
23:04 19.9 °C 11.4 °C 1021.6 hPa ENE 4.7 km/h 5.6 km/h 58% 0.0 mm CLR
23:09 19.8 °C 11.3 °C 1021.6 hPa NE 4.7 km/h 7.4 km/h 58% 0.0 mm CLR
23:14 19.8 °C 11.6 °C 1021.6 hPa NNE 4.7 km/h 8.4 km/h 59% 0.0 mm CLR
23:19 19.7 °C 11.4 °C 1021.6 hPa East 5.0 km/h 7.4 km/h 59% 0.0 mm CLR
23:24 19.7 °C 11.7 °C 1021.6 hPa ENE 5.0 km/h 7.4 km/h 60% 0.0 mm CLR
23:29 19.7 °C 11.4 °C 1021.6 hPa East 3.9 km/h 7.4 km/h 59% 0.0 mm CLR
23:34 19.7 °C 11.4 °C 1021.7 hPa NNE 3.9 km/h 8.7 km/h 59% 0.0 mm CLR
23:39 19.6 °C 11.4 °C 1021.7 hPa ENE 4.7 km/h 7.4 km/h 59% 0.0 mm CLR
23:44 19.5 °C 11.5 °C 1021.7 hPa ESE 4.7 km/h 7.4 km/h 60% 0.0 mm CLR
23:49 19.4 °C 11.4 °C 1021.7 hPa ESE 3.2 km/h 7.4 km/h 60% 0.0 mm CLR
23:54 19.4 °C 11.4 °C 1021.7 hPa ESE 3.2 km/h 3.7 km/h 60% 0.0 mm CLR
23:59 19.3 °C 11.6 °C 1021.7 hPa ESE 2.3 km/h 3.7 km/h 61% 0.0 mm CLR
Murcia-Puente Tocinos, España
Compliments of Weather Underground - 2.75 mb

La estación de MeteoMurcia.com, publica sus datos en los siguientes proyectos:

Weather Underground PWS IMURCIAP2 Meteoclimatic www.awekas.at

W3Counter
Web Analytics